Time;durP1;ratioP1;P1;durP2;ratioP2;P2;SDS_P1;SDS_P2;PMS_P1;PMS_P2;Temp;Humidity;BMP_temperature;BMP_pressure;BME280_temperature;BME280_humidity;BME280_pressure;Samples;Min_cycle;Max_cycle;Signal;HPM_P1;HPM_P2
2023/06/24 00:00:22;;;;;;;8.63;6.65;;;22.90;99.90;;;;;;5042169;28;20286;-25
2023/06/24 00:02:53;;;;;;;8.35;6.90;;;22.80;99.90;;;;;;5042399;28;20643;-25
2023/06/24 00:05:21;;;;;;;12.05;7.40;;;22.80;99.90;;;;;;5042173;28;20251;-25
2023/06/24 00:07:57;;;;;;;9.30;6.78;;;22.80;99.90;;;;;;5041806;28;20211;-25
2023/06/24 00:10:24;;;;;;;8.30;7.30;;;22.70;99.90;;;;;;5042222;28;20184;-25
2023/06/24 00:12:53;;;;;;;7.63;6.82;;;22.70;99.90;;;;;;5076953;28;20200;-25
2023/06/24 00:15:23;;;;;;;8.70;6.60;;;22.70;99.90;;;;;;5060371;28;20635;-25
2023/06/24 00:17:51;;;;;;;9.00;7.28;;;22.60;99.90;;;;;;5060501;28;20196;-25
2023/06/24 00:20:20;;;;;;;7.47;6.75;;;22.60;99.90;;;;;;5060250;28;20196;-25
2023/06/24 00:22:50;;;;;;;9.13;7.35;;;22.60;99.90;;;;;;5076153;28;20291;-25
2023/06/24 00:25:17;;;;;;;9.90;7.15;;;22.50;99.90;;;;;;5060336;28;20212;-25
2023/06/24 00:27:47;;;;;;;7.38;6.53;;;22.50;99.90;;;;;;5060605;28;20242;-25
2023/06/24 00:30:19;;;;;;;8.18;7.32;;;22.50;99.90;;;;;;5045860;28;20210;-25
2023/06/24 00:32:46;;;;;;;7.20;6.45;;;22.50;99.90;;;;;;5077399;28;20207;-25
2023/06/24 00:35:18;;;;;;;10.02;7.15;;;22.50;99.90;;;;;;5043711;28;20197;-25
2023/06/24 00:37:50;;;;;;;7.93;7.13;;;22.40;99.90;;;;;;5060215;28;20231;-25
2023/06/24 00:40:17;;;;;;;10.07;7.13;;;22.40;99.90;;;;;;5045034;28;20598;-25
2023/06/24 00:42:47;;;;;;;8.32;6.85;;;22.30;99.90;;;;;;5060412;28;20601;-25
2023/06/24 00:45:17;;;;;;;8.77;6.85;;;22.30;99.90;;;;;;5043745;28;20782;-25
2023/06/24 00:47:45;;;;;;;9.02;7.25;;;22.30;99.90;;;;;;5060366;28;20188;-25
2023/06/24 00:50:12;;;;;;;9.18;7.18;;;22.20;99.90;;;;;;5043437;28;20712;-25
2023/06/24 00:52:42;;;;;;;8.40;6.57;;;22.20;99.90;;;;;;5045725;28;20204;-25
2023/06/24 00:55:14;;;;;;;9.10;7.50;;;22.10;99.90;;;;;;5044970;28;20208;-32
2023/06/24 00:57:45;;;;;;;9.70;7.32;;;22.10;99.90;;;;;;5045045;28;20206;-32
2023/06/24 01:00:17;;;;;;;8.70;6.60;;;22.10;99.90;;;;;;5076360;28;20267;-32
2023/06/24 01:02:50;;;;;;;9.38;7.93;;;22.00;99.90;;;;;;5045100;28;20200;-32
2023/06/24 01:05:17;;;;;;;7.72;6.43;;;22.00;99.90;;;;;;5059720;28;20235;-32
2023/06/24 01:07:50;;;;;;;9.40;7.60;;;21.90;99.90;;;;;;5059257;28;20207;-32
2023/06/24 01:10:17;;;;;;;8.15;7.35;;;21.90;99.90;;;;;;5044463;28;20266;-32
2023/06/24 01:12:47;;;;;;;8.43;7.03;;;21.90;99.90;;;;;;5059004;28;20204;-32
2023/06/24 01:15:21;;;;;;;8.30;7.00;;;21.80;99.90;;;;;;5026742;28;20224;-32
2023/06/24 01:17:59;;;;;;;8.10;6.75;;;21.80;99.90;;;;;;5044987;28;20246;-32
2023/06/24 01:20:33;;;;;;;7.90;6.45;;;21.80;99.90;;;;;;5059461;28;20269;-32
2023/06/24 01:23:11;;;;;;;7.50;6.78;;;21.80;99.90;;;;;;5059009;28;20782;-32
2023/06/24 01:26:02;;;;;;;9.60;7.13;;;21.70;99.90;;;;;;5044610;28;20204;-32
2023/06/24 01:29:06;;;;;;;7.00;6.13;;;21.70;99.90;;;;;;5059313;28;20227;-32
2023/06/24 01:31:45;;;;;;;6.85;6.15;;;21.70;99.90;;;;;;5044299;28;20227;-32
2023/06/24 01:34:26;;;;;;;7.05;6.32;;;21.60;99.90;;;;;;5058879;28;20204;-32
2023/06/24 01:37:28;;;;;;;8.63;7.03;;;21.60;99.90;;;;;;5058802;28;20216;-32
2023/06/24 01:40:27;;;;;;;7.18;5.82;;;21.50;99.90;;;;;;5044410;28;20253;-32
2023/06/24 01:42:57;;;;;;;7.78;6.20;;;21.50;99.90;;;;;;5044106;28;20215;-32
2023/06/24 01:45:36;;;;;;;6.95;6.25;;;21.50;99.90;;;;;;5044269;28;20585;-32
2023/06/24 01:48:15;;;;;;;11.13;6.47;;;21.50;99.90;;;;;;5044098;28;20196;-32
2023/06/24 01:50:59;;;;;;;8.70;6.30;;;21.50;99.90;;;;;;5043949;28;20288;-32
2023/06/24 01:53:34;;;;;;;7.28;6.53;;;21.40;99.90;;;;;;5044161;28;20253;-32
2023/06/24 01:56:07;;;;;;;7.72;6.43;;;21.40;99.90;;;;;;5043933;28;20199;-26
2023/06/24 01:58:38;;;;;;;8.52;6.15;;;21.40;99.90;;;;;;5058517;28;20200;-25
2023/06/24 02:01:09;;;;;;;6.55;5.95;;;21.30;99.90;;;;;;5043875;28;20195;-25
2023/06/24 02:03:40;;;;;;;6.78;6.07;;;21.30;99.90;;;;;;5043728;28;20220;-25
2023/06/24 02:06:16;;;;;;;7.78;6.25;;;21.20;99.90;;;;;;5058586;28;20232;-25
2023/06/24 02:08:50;;;;;;;9.05;7.00;;;21.20;99.90;;;;;;5058505;28;20602;-25
2023/06/24 02:11:23;;;;;;;8.70;6.47;;;21.10;99.90;;;;;;5043843;28;20576;-25
2023/06/24 02:13:53;;;;;;;7.43;6.68;;;21.10;99.90;;;;;;5043783;28;20253;-25
2023/06/24 02:16:21;;;;;;;9.88;6.47;;;21.10;99.90;;;;;;5043469;28;20207;-25
2023/06/24 02:18:49;;;;;;;7.88;6.18;;;21.00;99.90;;;;;;5041539;28;20232;-25
2023/06/24 02:21:20;;;;;;;6.72;6.13;;;21.00;99.90;;;;;;5058204;28;20274;-25
2023/06/24 02:23:48;;;;;;;6.95;5.75;;;20.90;99.90;;;;;;5057599;28;20310;-25
2023/06/24 02:26:19;;;;;;;7.13;6.00;;;20.90;99.90;;;;;;5043539;28;20204;-25
2023/06/24 02:28:50;;;;;;;7.72;5.70;;;20.80;99.90;;;;;;5043464;28;20281;-31
2023/06/24 02:31:17;;;;;;;5.97;5.40;;;20.80;99.90;;;;;;5042786;28;20287;-32
2023/06/24 02:33:50;;;;;;;6.35;5.72;;;20.70;99.90;;;;;;5057576;28;20839;-32
2023/06/24 02:36:19;;;;;;;5.55;5.03;;;20.70;99.90;;;;;;5025326;28;20677;-31
2023/06/24 02:38:49;;;;;;;6.53;5.85;;;20.70;99.90;;;;;;5043137;28;20211;-31
2023/06/24 02:41:16;;;;;;;6.35;5.72;;;20.60;99.90;;;;;;5057703;28;20235;-31
2023/06/24 02:43:45;;;;;;;7.03;5.65;;;20.60;99.90;;;;;;5041168;28;20576;-32
2023/06/24 02:46:14;;;;;;;6.55;5.53;;;20.60;99.90;;;;;;5024724;28;20219;-31
2023/06/24 02:48:47;;;;;;;6.13;5.15;;;20.50;99.90;;;;;;5042582;28;20192;-31
2023/06/24 02:51:15;;;;;;;5.72;5.05;;;20.50;99.90;;;;;;5057430;28;20516;-31
2023/06/24 02:53:43;;;;;;;5.45;4.95;;;20.50;99.90;;;;;;5043092;28;20215;-32
2023/06/24 02:56:13;;;;;;;5.55;5.00;;;20.40;99.90;;;;;;5042939;28;20200;-31
2023/06/24 02:58:45;;;;;;;5.20;4.70;;;20.40;99.90;;;;;;5042875;28;20551;-31
2023/06/24 03:01:24;;;;;;;6.03;5.40;;;20.30;99.90;;;;;;5042952;28;20205;-31
2023/06/24 03:03:55;;;;;;;6.22;5.03;;;20.30;99.90;;;;;;5042329;28;20239;-32
2023/06/24 03:06:27;;;;;;;6.55;5.72;;;20.30;99.90;;;;;;5042847;28;20200;-25
2023/06/24 03:08:58;;;;;;;9.18;5.10;;;20.20;99.90;;;;;;5043107;28;20250;-25
2023/06/24 03:11:27;;;;;;;6.28;5.22;;;20.20;99.90;;;;;;5057822;28;20208;-25
2023/06/24 03:13:56;;;;;;;7.07;5.47;;;20.10;99.90;;;;;;5074206;28;20735;-25
2023/06/24 03:16:26;;;;;;;7.38;5.57;;;20.10;99.90;;;;;;5042139;28;20200;-25
2023/06/24 03:18:56;;;;;;;7.70;5.57;;;20.10;99.90;;;;;;5042821;28;20196;-25
2023/06/24 03:21:28;;;;;;;8.00;5.22;;;20.10;99.90;;;;;;5042323;28;20236;-25
2023/06/24 03:23:55;;;;;;;6.68;5.10;;;20.00;99.90;;;;;;5040752;28;20300;-25
2023/06/24 03:26:22;;;;;;;6.82;5.18;;;20.00;99.90;;;;;;5057684;28;20204;-25
2023/06/24 03:28:50;;;;;;;7.03;4.85;;;19.90;99.90;;;;;;5057456;28;20409;-25
2023/06/24 03:31:17;;;;;;;5.68;5.18;;;19.90;99.90;;;;;;5057477;28;20261;-25
2023/06/24 03:33:49;;;;;;;6.40;5.50;;;19.90;99.90;;;;;;5041135;28;20223;-25
2023/06/24 03:36:16;;;;;;;5.53;4.95;;;19.90;99.90;;;;;;5057263;28;20200;-25
2023/06/24 03:38:43;;;;;;;5.47;4.97;;;19.90;99.90;;;;;;5073741;28;20656;-25
2023/06/24 03:41:13;;;;;;;5.97;5.25;;;19.80;99.90;;;;;;5041771;28;20208;-25
2023/06/24 03:43:44;;;;;;;5.55;5.00;;;19.80;99.90;;;;;;5042459;28;20315;-25
2023/06/24 03:46:14;;;;;;;8.38;5.50;;;19.80;99.90;;;;;;5041888;28;20203;-25
2023/06/24 03:48:49;;;;;;;6.13;5.30;;;19.80;99.90;;;;;;5046396;28;20208;-25
2023/06/24 03:51:19;;;;;;;5.78;5.20;;;19.70;99.90;;;;;;5046261;28;20201;-25
2023/06/24 03:53:52;;;;;;;8.70;5.47;;;19.70;99.90;;;;;;5044954;28;20269;-25
2023/06/24 03:56:19;;;;;;;7.05;5.10;;;19.70;99.90;;;;;;5027892;28;20223;-25
2023/06/24 03:58:49;;;;;;;6.20;5.30;;;19.70;99.90;;;;;;5046152;28;20695;-25
2023/06/24 04:01:19;;;;;;;8.25;5.85;;;19.60;99.90;;;;;;5060837;28;20204;-25
2023/06/24 04:03:47;;;;;;;8.80;5.72;;;19.60;99.90;;;;;;5046115;28;20215;-25
2023/06/24 04:06:16;;;;;;;5.40;4.90;;;19.60;99.90;;;;;;5061600;28;20231;-25
2023/06/24 04:08:44;;;;;;;7.60;5.68;;;19.60;99.90;;;;;;5045853;28;20617;-25
2023/06/24 04:11:16;;;;;;;7.63;5.60;;;19.50;99.90;;;;;;5045706;28;20239;-25
2023/06/24 04:13:44;;;;;;;5.78;5.18;;;19.50;99.90;;;;;;5060918;28;20203;-25
2023/06/24 04:16:11;;;;;;;5.95;5.10;;;19.50;99.90;;;;;;5045494;28;20296;-25
2023/06/24 04:18:41;;;;;;;5.47;4.97;;;19.50;99.90;;;;;;5045922;28;20208;-25
2023/06/24 04:21:14;;;;;;;6.30;5.35;;;19.50;99.90;;;;;;5045366;28;20259;-25
2023/06/24 04:23:43;;;;;;;7.82;5.57;;;19.50;99.90;;;;;;5045997;28;20243;-25
2023/06/24 04:26:10;;;;;;;6.88;5.82;;;19.50;99.90;;;;;;5045763;28;20228;-25
2023/06/24 04:28:40;;;;;;;6.65;5.50;;;19.50;99.90;;;;;;5044189;28;20200;-25
2023/06/24 04:31:09;;;;;;;6.18;5.30;;;19.50;99.90;;;;;;5027411;28;20737;-25
2023/06/24 04:33:36;;;;;;;6.15;5.22;;;19.50;99.90;;;;;;5044233;28;20198;-25
2023/06/24 04:36:04;;;;;;;5.88;5.38;;;19.50;99.90;;;;;;5060387;28;20200;-25
2023/06/24 04:38:36;;;;;;;5.90;5.10;;;19.50;99.90;;;;;;5043548;28;20312;-30
2023/06/24 04:41:03;;;;;;;7.72;5.25;;;19.50;99.90;;;;;;5027337;28;20196;-29
2023/06/24 04:43:35;;;;;;;8.25;5.13;;;19.50;99.90;;;;;;5045374;28;20212;-26
2023/06/24 04:46:02;;;;;;;6.85;4.90;;;19.50;99.90;;;;;;5044992;28;20223;-25
2023/06/24 04:48:29;;;;;;;7.20;4.93;;;19.50;99.90;;;;;;5059531;28;20586;-29
2023/06/24 04:50:57;;;;;;;8.15;5.03;;;19.50;99.90;;;;;;5044805;28;20193;-26
2023/06/24 04:53:25;;;;;;;5.95;5.20;;;19.50;99.90;;;;;;5045149;28;20200;-26
2023/06/24 04:55:52;;;;;;;5.63;5.03;;;19.50;99.90;;;;;;5045014;28;20215;-26
2023/06/24 04:58:22;;;;;;;5.28;4.78;;;19.50;99.90;;;;;;5058917;28;20211;-26
2023/06/24 05:00:54;;;;;;;7.20;5.00;;;19.50;99.90;;;;;;5044670;28;20209;-31
2023/06/24 05:03:21;;;;;;;7.88;5.15;;;19.60;99.90;;;;;;5045072;28;20204;-26
2023/06/24 05:05:51;;;;;;;6.57;4.78;;;19.60;99.90;;;;;;5059387;28;20235;-25
2023/06/24 05:08:18;;;;;;;6.38;4.72;;;19.60;99.90;;;;;;5044626;28;20208;-25
2023/06/24 05:10:49;;;;;;;5.40;4.85;;;19.60;99.90;;;;;;5042867;28;20204;-25
2023/06/24 05:13:19;;;;;;;5.45;4.75;;;19.60;99.90;;;;;;5044401;28;20288;-25
2023/06/24 05:15:47;;;;;;;5.57;4.50;;;19.70;99.90;;;;;;5044364;28;20208;-25
2023/06/24 05:18:15;;;;;;;6.85;4.85;;;19.70;99.90;;;;;;5059751;28;20727;-25
2023/06/24 05:20:42;;;;;;;6.65;4.95;;;19.70;99.90;;;;;;5044530;28;20258;-25
2023/06/24 05:23:11;;;;;;;5.45;4.82;;;19.70;99.90;;;;;;5059094;28;20240;-25
2023/06/24 05:25:41;;;;;;;6.05;4.47;;;19.80;99.90;;;;;;5059251;28;20228;-25
2023/06/24 05:28:08;;;;;;;5.18;4.00;;;19.80;99.90;;;;;;5076227;28;20212;-25
2023/06/24 05:30:38;;;;;;;4.85;4.13;;;19.90;99.90;;;;;;5058398;28;20650;-25
2023/06/24 05:33:05;;;;;;;7.10;4.47;;;19.90;99.90;;;;;;5043936;28;20662;-25
2023/06/24 05:35:41;;;;;;;5.95;4.38;;;19.90;99.90;;;;;;5058638;28;20193;-25
2023/06/24 05:38:09;;;;;;;4.68;4.10;;;20.00;99.90;;;;;;5044526;28;20679;-25
2023/06/24 05:40:36;;;;;;;5.28;4.40;;;20.10;99.90;;;;;;5059464;28;20285;-25
2023/06/24 05:43:07;;;;;;;5.97;4.30;;;20.10;99.90;;;;;;5058797;28;20297;-25
2023/06/24 05:45:35;;;;;;;6.97;4.22;;;20.10;99.90;;;;;;5043978;28;20216;-25
2023/06/24 05:48:07;;;;;;;5.53;4.50;;;20.20;99.90;;;;;;5043919;28;20220;-25
2023/06/24 05:50:34;;;;;;;5.13;4.05;;;20.20;99.90;;;;;;5058684;28;20196;-25
2023/06/24 05:53:04;;;;;;;5.80;4.40;;;20.30;99.90;;;;;;5044150;28;20757;-25
2023/06/24 05:55:34;;;;;;;4.60;4.15;;;20.30;99.90;;;;;;5042250;28;20281;-25
2023/06/24 05:58:02;;;;;;;5.03;4.25;;;20.30;99.90;;;;;;5043815;28;20200;-25
2023/06/24 06:00:37;;;;;;;5.43;4.05;;;20.30;99.90;;;;;;5043686;28;20231;-25
2023/06/24 06:03:04;;;;;;;4.82;3.97;;;20.30;99.90;;;;;;5058802;28;20254;-25
2023/06/24 06:05:33;;;;;;;5.30;4.13;;;20.30;99.90;;;;;;5059866;28;20228;-25
2023/06/24 06:08:01;;;;;;;4.50;3.97;;;20.40;99.90;;;;;;5042652;28;21082;-25
2023/06/24 06:10:28;;;;;;;6.57;4.60;;;20.40;99.90;;;;;;5059181;28;20207;-25
2023/06/24 06:13:00;;;;;;;5.60;4.35;;;20.40;99.90;;;;;;5042888;28;20752;-25
2023/06/24 06:15:27;;;;;;;3.92;3.58;;;20.40;99.90;;;;;;5059686;28;20208;-25
2023/06/24 06:17:57;;;;;;;7.07;4.38;;;20.40;99.90;;;;;;5044657;28;20208;-25
2023/06/24 06:20:24;;;;;;;5.68;3.95;;;20.40;99.90;;;;;;5044522;28;20204;-25
2023/06/24 06:22:56;;;;;;;5.80;4.72;;;20.40;99.90;;;;;;5044385;28;20323;-25
2023/06/24 06:25:23;;;;;;;5.80;3.67;;;20.40;99.90;;;;;;5044364;28;20420;-25
2023/06/24 06:27:51;;;;;;;4.53;3.72;;;20.40;99.90;;;;;;5059050;28;20246;-25
2023/06/24 06:30:20;;;;;;;5.68;4.30;;;20.40;99.90;;;;;;5044607;28;20215;-25
2023/06/24 06:32:48;;;;;;;4.63;3.80;;;20.50;99.90;;;;;;5044138;28;20228;-25
2023/06/24 06:35:15;;;;;;;5.00;3.92;;;20.50;99.90;;;;;;5044098;28;20214;-25
2023/06/24 06:37:43;;;;;;;4.95;3.92;;;20.50;99.90;;;;;;5043973;28;20204;-25
2023/06/24 06:40:10;;;;;;;5.13;3.80;;;20.50;99.90;;;;;;5042600;28;20681;-25
2023/06/24 06:42:37;;;;;;;11.60;4.28;;;20.50;99.90;;;;;;5044116;28;20295;-25
2023/06/24 06:45:05;;;;;;;5.90;4.13;;;20.60;99.90;;;;;;5058762;28;20776;-25
2023/06/24 06:47:32;;;;;;;4.15;3.63;;;20.60;99.90;;;;;;5058990;28;20196;-25
2023/06/24 06:50:05;;;;;;;4.30;3.90;;;20.60;99.90;;;;;;5058077;28;20208;-25
2023/06/24 06:52:38;;;;;;;5.68;3.88;;;20.60;99.90;;;;;;5041106;28;20700;-25
2023/06/24 06:55:08;;;;;;;6.63;4.00;;;20.70;99.90;;;;;;5043078;28;20204;-25
2023/06/24 06:57:35;;;;;;;5.82;4.00;;;20.70;99.90;;;;;;5043091;28;20211;-25
2023/06/24 07:00:05;;;;;;;5.30;3.95;;;20.80;99.90;;;;;;5057245;28;20219;-25
2023/06/24 07:02:34;;;;;;;4.45;4.05;;;20.80;99.90;;;;;;5042696;28;20200;-25
2023/06/24 07:05:05;;;;;;;5.40;3.90;;;20.90;99.90;;;;;;5057564;28;20648;-25
2023/06/24 07:07:34;;;;;;;4.57;3.70;;;20.90;99.90;;;;;;5074169;28;20219;-25
2023/06/24 07:10:04;;;;;;;4.15;3.63;;;21.00;99.90;;;;;;5074246;28;20257;-25
2023/06/24 07:12:31;;;;;;;4.47;3.47;;;21.00;99.90;;;;;;5042909;28;20219;-25
2023/06/24 07:14:58;;;;;;;4.07;3.60;;;21.10;99.90;;;;;;5042618;28;20239;-25
2023/06/24 07:17:25;;;;;;;4.47;3.40;;;21.10;99.90;;;;;;5042742;28;20200;-25
2023/06/24 07:19:52;;;;;;;4.88;3.38;;;21.20;99.90;;;;;;5056509;28;20714;-25
2023/06/24 07:22:20;;;;;;;4.10;3.38;;;21.20;99.90;;;;;;5040438;28;20733;-25
2023/06/24 07:24:49;;;;;;;5.22;3.33;;;21.30;99.90;;;;;;5057042;28;20689;-25
2023/06/24 07:27:19;;;;;;;5.57;3.47;;;21.30;99.90;;;;;;5042621;28;20268;-25
2023/06/24 07:29:46;;;;;;;4.00;3.47;;;21.40;99.90;;;;;;5042212;28;20254;-25
2023/06/24 07:32:18;;;;;;;4.50;3.40;;;21.40;99.90;;;;;;5040965;28;20192;-25
2023/06/24 07:34:50;;;;;;;3.30;2.92;;;21.50;99.90;;;;;;5042381;28;20291;-25
2023/06/24 07:37:17;;;;;;;3.05;2.78;;;21.50;99.90;;;;;;5057808;28;20200;-25
2023/06/24 07:39:51;;;;;;;4.05;3.10;;;21.50;99.90;;;;;;5056325;28;20192;-25
2023/06/24 07:42:23;;;;;;;3.28;2.97;;;21.50;99.90;;;;;;5024203;28;20200;-25
2023/06/24 07:44:53;;;;;;;3.13;2.80;;;21.50;99.90;;;;;;5042100;28;20196;-24
2023/06/24 07:47:20;;;;;;;3.42;3.05;;;21.60;99.90;;;;;;5042544;28;20215;-25
2023/06/24 07:49:50;;;;;;;3.50;2.90;;;21.60;99.90;;;;;;5040752;28;20319;-25
2023/06/24 07:52:20;;;;;;;3.58;2.88;;;21.60;99.90;;;;;;5024465;28;20200;-25
2023/06/24 07:54:47;;;;;;;4.22;2.67;;;21.60;99.90;;;;;;5056982;28;20208;-25
2023/06/24 07:57:14;;;;;;;2.92;2.40;;;21.60;99.90;;;;;;5073767;28;20569;-25
2023/06/24 07:59:42;;;;;;;3.63;2.75;;;21.70;99.90;;;;;;5040521;28;20737;-25
2023/06/24 08:02:12;;;;;;;3.92;2.80;;;21.70;99.90;;;;;;5057035;28;20200;-25
2023/06/24 08:04:42;;;;;;;3.08;2.80;;;21.70;99.90;;;;;;5040789;28;20323;-25
2023/06/24 08:07:09;;;;;;;2.80;2.60;;;21.80;99.90;;;;;;5041887;28;20622;-25
2023/06/24 08:09:38;;;;;;;3.80;2.60;;;21.80;99.90;;;;;;5041812;28;20279;-25
2023/06/24 08:12:11;;;;;;;3.80;2.83;;;21.80;99.90;;;;;;5023605;28;20192;-25
2023/06/24 08:14:40;;;;;;;4.00;2.75;;;21.90;99.90;;;;;;5057050;28;20204;-25
2023/06/24 08:17:10;;;;;;;4.13;2.42;;;21.90;99.90;;;;;;5056486;28;20269;-25
2023/06/24 08:19:40;;;;;;;4.03;2.60;;;21.90;99.90;;;;;;5057229;28;20208;-25
2023/06/24 08:22:09;;;;;;;3.30;2.78;;;22.00;99.90;;;;;;5039751;28;20247;-25
2023/06/24 08:24:39;;;;;;;2.45;2.25;;;22.00;99.90;;;;;;5041803;28;20251;-25
2023/06/24 08:27:08;;;;;;;4.57;2.80;;;22.00;99.90;;;;;;5041359;28;20376;-25
2023/06/24 08:29:40;;;;;;;5.38;2.47;;;22.10;99.90;;;;;;5041663;28;20767;-25
2023/06/24 08:32:07;;;;;;;2.28;2.05;;;22.10;99.90;;;;;;5042478;28;20251;-25
2023/06/24 08:34:34;;;;;;;2.85;2.35;;;22.10;99.90;;;;;;5045313;28;20582;-25
2023/06/24 08:37:04;;;;;;;2.95;2.38;;;22.20;99.90;;;;;;5044978;28;20196;-25
2023/06/24 08:39:38;;;;;;;3.22;1.90;;;22.20;99.90;;;;;;5045222;28;20216;-25
2023/06/24 08:42:06;;;;;;;3.75;2.50;;;22.20;99.90;;;;;;5044957;28;20219;-25
2023/06/24 08:44:35;;;;;;;3.67;2.55;;;22.20;99.90;;;;;;5076982;28;20749;-25
2023/06/24 08:47:03;;;;;;;3.38;2.10;;;22.20;99.90;;;;;;5044622;28;20277;-25
2023/06/24 08:49:36;;;;;;;3.08;2.00;;;22.20;99.90;;;;;;5043348;28;20192;-25
2023/06/24 08:52:11;;;;;;;2.30;2.10;;;22.30;99.90;;;;;;5045277;28;20200;-25
2023/06/24 08:54:46;;;;;;;3.10;2.30;;;22.30;99.90;;;;;;5059375;28;20282;-25
2023/06/24 08:57:18;;;;;;;2.65;2.15;;;22.30;99.90;;;;;;5044831;28;20199;-25
2023/06/24 08:59:48;;;;;;;2.35;2.03;;;22.30;99.90;;;;;;5044690;28;20212;-25
2023/06/24 09:02:18;;;;;;;2.50;2.30;;;22.30;99.90;;;;;;5059537;28;20204;-25
2023/06/24 09:04:45;;;;;;;2.47;1.77;;;22.40;99.90;;;;;;5044930;28;20207;-25
2023/06/24 09:07:13;;;;;;;2.08;1.80;;;22.40;99.90;;;;;;5042597;28;20220;-25
2023/06/24 09:09:44;;;;;;;2.45;2.20;;;22.40;99.90;;;;;;5044322;28;20659;-25
2023/06/24 09:12:17;;;;;;;2.22;2.03;;;22.50;99.90;;;;;;5058734;28;20792;-25
2023/06/24 09:14:51;;;;;;;4.28;2.40;;;22.50;99.90;;;;;;5044871;28;20204;-25
2023/06/24 09:17:22;;;;;;;2.08;1.88;;;22.50;99.90;;;;;;5044672;28;20200;-25
2023/06/24 09:20:02;;;;;;;3.17;2.30;;;22.50;99.90;;;;;;5058790;28;20539;-25
2023/06/24 09:22:31;;;;;;;2.10;1.90;;;22.50;99.90;;;;;;5044399;28;20243;-25
2023/06/24 09:25:04;;;;;;;2.78;2.08;;;22.60;99.90;;;;;;5044160;28;20215;-25
2023/06/24 09:27:34;;;;;;;2.45;2.03;;;22.60;99.90;;;;;;5058939;28;20239;-25
2023/06/24 09:30:20;;;;;;;3.03;2.03;;;22.60;99.90;;;;;;5044769;28;20196;-25
2023/06/24 09:32:53;;;;;;;2.63;2.10;;;22.70;99.90;;;;;;5059130;28;20270;-24
2023/06/24 09:35:25;;;;;;;2.45;2.05;;;22.60;99.90;;;;;;5058899;28;20213;-25
2023/06/24 09:37:53;;;;;;;2.38;2.17;;;22.70;99.90;;;;;;5044093;28;20196;-25
2023/06/24 09:40:23;;;;;;;2.40;2.20;;;22.70;99.90;;;;;;5076378;28;20196;-25
2023/06/24 09:42:51;;;;;;;3.10;2.20;;;22.80;99.90;;;;;;5042361;28;20200;-25
2023/06/24 09:45:25;;;;;;;2.80;2.50;;;22.80;99.90;;;;;;5058820;28;20208;-25
2023/06/24 09:47:54;;;;;;;2.97;2.55;;;22.90;99.90;;;;;;5058643;28;20216;-25
2023/06/24 09:50:21;;;;;;;2.88;2.33;;;22.90;99.90;;;;;;5058541;28;20706;-25
2023/06/24 09:52:53;;;;;;;5.20;2.38;;;23.00;99.90;;;;;;5058750;28;20262;-24
2023/06/24 09:55:20;;;;;;;2.40;2.20;;;23.10;99.90;;;;;;5044021;28;20223;-24
2023/06/24 09:57:50;;;;;;;3.67;1.85;;;23.10;99.90;;;;;;5058512;28;20763;-25
2023/06/24 10:00:19;;;;;;;2.40;2.20;;;23.10;99.90;;;;;;5043614;28;20258;-24
2023/06/24 10:02:48;;;;;;;2.25;2.05;;;23.20;99.90;;;;;;5044115;28;20235;-24
2023/06/24 10:05:16;;;;;;;20.15;4.70;;;23.20;99.90;;;;;;5043503;28;20200;-24
2023/06/24 10:07:45;;;;;;;6.97;2.83;;;23.30;99.90;;;;;;5043283;28;20620;-24
2023/06/24 10:10:18;;;;;;;6.03;2.50;;;23.30;99.90;;;;;;5043678;28;20202;-24
2023/06/24 10:12:45;;;;;;;2.50;2.00;;;23.30;99.90;;;;;;5043523;28;20212;-24
2023/06/24 10:15:13;;;;;;;2.10;1.70;;;23.40;99.90;;;;;;5074823;28;20274;-24
2023/06/24 10:17:44;;;;;;;2.13;1.85;;;23.40;99.90;;;;;;5058353;28;20200;-24
2023/06/24 10:20:25;;;;;;;2.75;1.95;;;23.40;99.90;;;;;;5058373;28;20204;-24
2023/06/24 10:22:53;;;;;;;1.90;1.80;;;23.50;99.90;;;;;;5043211;28;20254;-25
2023/06/24 10:25:23;;;;;;;2.10;2.00;;;23.60;99.90;;;;;;5057840;28;20232;-25
2023/06/24 10:27:56;;;;;;;1.83;1.70;;;23.60;99.90;;;;;;5043184;28;20239;-25
2023/06/24 10:30:27;;;;;;;2.15;1.80;;;23.70;99.90;;;;;;5058210;28;20246;-25
2023/06/24 10:32:54;;;;;;;2.03;1.83;;;23.80;99.90;;;;;;5041626;28;20201;-25
2023/06/24 10:35:24;;;;;;;2.10;1.90;;;23.80;99.90;;;;;;5041298;28;20226;-25
2023/06/24 10:37:58;;;;;;;2.35;1.92;;;23.80;99.90;;;;;;5042768;28;20220;-25
2023/06/24 10:40:36;;;;;;;3.08;1.50;;;23.90;99.90;;;;;;5042878;28;20551;-25
2023/06/24 10:43:29;;;;;;;1.90;1.55;;;24.00;99.90;;;;;;5056611;28;20207;-25
2023/06/24 10:45:58;;;;;;;1.98;1.88;;;24.00;99.90;;;;;;5057316;28;20220;-25
2023/06/24 10:48:28;;;;;;;2.40;2.17;;;24.10;99.90;;;;;;5042341;28;20253;-25
2023/06/24 10:50:58;;;;;;;2.95;1.77;;;24.10;99.90;;;;;;5042310;28;20200;-25
2023/06/24 10:53:30;;;;;;;2.70;1.63;;;24.10;99.90;;;;;;5041035;28;20374;-25
2023/06/24 10:55:58;;;;;;;2.22;2.00;;;24.10;99.90;;;;;;5040366;28;20204;-25
2023/06/24 10:58:25;;;;;;;3.90;2.03;;;24.20;99.90;;;;;;5043136;28;20544;-25
2023/06/24 11:01:06;;;;;;;2.25;2.00;;;24.30;99.90;;;;;;5040949;28;20200;-25
2023/06/24 11:03:35;;;;;;;2.80;2.00;;;24.30;99.90;;;;;;5057008;28;20701;-25
2023/06/24 11:06:12;;;;;;;2.30;1.60;;;24.40;99.90;;;;;;5056760;28;20224;-25
2023/06/24 11:08:44;;;;;;;1.90;1.70;;;24.50;99.90;;;;;;5042230;28;20204;-25
2023/06/24 11:11:21;;;;;;;2.45;2.10;;;24.50;99.90;;;;;;5042185;28;20204;-25
2023/06/24 11:13:50;;;;;;;2.22;2.00;;;24.60;99.90;;;;;;5042491;28;20204;-25
2023/06/24 11:16:21;;;;;;;2.35;2.15;;;24.50;99.90;;;;;;5042012;28;20562;-25
2023/06/24 11:18:53;;;;;;;1.98;1.80;;;24.50;99.90;;;;;;5042561;28;20223;-25
2023/06/24 11:21:33;;;;;;;1.90;1.73;;;24.60;99.90;;;;;;5023916;28;20277;-25
2023/06/24 11:24:02;;;;;;;1.65;1.55;;;24.70;99.90;;;;;;5042289;28;20479;-25
2023/06/24 11:26:34;;;;;;;2.20;1.95;;;24.70;99.90;;;;;;5056795;28;20248;-25
2023/06/24 11:29:11;;;;;;;2.13;1.90;;;24.80;99.90;;;;;;5042120;28;20208;-25
2023/06/24 11:31:40;;;;;;;2.55;1.73;;;24.80;99.90;;;;;;5041737;28;20286;-25
2023/06/24 11:34:09;;;;;;;1.88;1.52;;;24.80;99.90;;;;;;5042286;28;20298;-24
2023/06/24 11:36:39;;;;;;;2.50;1.80;;;24.90;99.90;;;;;;5056563;28;20211;-24
2023/06/24 11:39:23;;;;;;;1.70;1.60;;;24.90;99.90;;;;;;5040260;28;20212;-24
2023/06/24 11:41:52;;;;;;;2.00;1.90;;;24.90;99.90;;;;;;5023829;28;20231;-24
2023/06/24 11:44:20;;;;;;;2.38;1.80;;;24.90;99.90;;;;;;5056487;28;20204;-24
2023/06/24 11:47:02;;;;;;;2.85;1.65;;;25.00;99.90;;;;;;5041562;28;20765;-24
2023/06/24 11:49:30;;;;;;;3.00;1.90;;;25.00;99.90;;;;;;5041498;28;20200;-25
2023/06/24 11:51:58;;;;;;;2.55;1.83;;;25.00;99.90;;;;;;5041952;28;20204;-25
2023/06/24 11:54:25;;;;;;;2.42;1.90;;;25.00;99.90;;;;;;5056402;28;20250;-25
2023/06/24 11:56:53;;;;;;;2.00;1.80;;;25.00;99.90;;;;;;5041590;28;20274;-25
2023/06/24 11:59:26;;;;;;;3.85;1.90;;;25.10;99.90;;;;;;5056590;28;20224;-24
2023/06/24 12:01:59;;;;;;;1.83;1.60;;;25.20;99.90;;;;;;5042018;28;20215;-25
2023/06/24 12:04:33;;;;;;;2.47;1.63;;;25.20;99.90;;;;;;5056328;28;20986;-24
2023/06/24 12:07:06;;;;;;;2.58;2.00;;;25.30;99.90;;;;;;5042944;28;20216;-25
2023/06/24 12:09:35;;;;;;;2.22;1.80;;;25.30;99.90;;;;;;5045704;28;20585;-25
2023/06/24 12:12:02;;;;;;;3.88;1.80;;;25.40;99.90;;;;;;5043408;28;20227;-25
2023/06/24 12:14:30;;;;;;;2.95;1.80;;;25.50;99.90;;;;;;5043749;28;20200;-25
2023/06/24 12:16:57;;;;;;;2.67;2.10;;;25.50;99.90;;;;;;5045522;28;20502;-24
2023/06/24 12:19:24;;;;;;;2.95;1.80;;;25.60;99.90;;;;;;5060022;28;20204;-25
2023/06/24 12:21:51;;;;;;;2.25;1.80;;;25.60;99.90;;;;;;5043461;28;20736;-25
2023/06/24 12:24:18;;;;;;;1.90;1.67;;;25.70;99.90;;;;;;5044162;28;20637;-24
2023/06/24 12:26:51;;;;;;;1.80;1.70;;;25.70;99.90;;;;;;5043587;28;20224;-25
2023/06/24 12:29:20;;;;;;;2.40;2.08;;;25.80;99.90;;;;;;5045189;28;20204;-26
2023/06/24 12:31:50;;;;;;;2.35;1.80;;;25.90;99.90;;;;;;5043260;28;20563;-25
2023/06/24 12:34:17;;;;;;;2.20;1.67;;;25.90;99.90;;;;;;5045196;28;20209;-28
2023/06/24 12:36:44;;;;;;;2.17;1.92;;;26.00;99.90;;;;;;5045330;28;20274;-24
2023/06/24 12:39:16;;;;;;;2.00;1.80;;;26.00;99.90;;;;;;5060169;28;20337;-25
2023/06/24 12:41:46;;;;;;;2.75;1.95;;;26.10;99.90;;;;;;5045559;28;20586;-25
2023/06/24 12:44:18;;;;;;;2.15;1.80;;;26.10;99.90;;;;;;5044644;28;20204;-25
2023/06/24 12:46:46;;;;;;;2.20;1.70;;;26.20;99.90;;;;;;5044507;28;20227;-25
2023/06/24 12:49:13;;;;;;;2.30;2.10;;;26.20;99.90;;;;;;5044613;28;20247;-25
2023/06/24 12:51:40;;;;;;;2.35;1.90;;;26.20;99.90;;;;;;5044742;28;20204;-25
2023/06/24 12:54:14;;;;;;;2.30;2.10;;;26.20;99.90;;;;;;5045068;28;20215;-25
2023/06/24 12:56:41;;;;;;;1.90;1.75;;;26.30;99.90;;;;;;5044988;28;20579;-25
2023/06/24 12:59:08;;;;;;;2.60;2.30;;;26.40;99.90;;;;;;5044896;28;20204;-26
2023/06/24 13:01:38;;;;;;;2.40;2.10;;;26.40;99.90;;;;;;5043019;28;20561;-25